createdAt,value
2023-02-23T00:00:37.750Z,-8.30
2023-02-23T00:01:42.326Z,-8.30
2023-02-23T00:02:44.161Z,-8.30
2023-02-23T00:03:46.445Z,-8.40
2023-02-23T00:04:48.324Z,-8.40
2023-02-23T00:05:50.116Z,-8.40
2023-02-23T00:06:53.553Z,-8.40
2023-02-23T00:07:56.014Z,-8.40
2023-02-23T00:09:01.282Z,-8.40
2023-02-23T00:10:03.598Z,-8.40
2023-02-23T00:11:07.106Z,-8.40
2023-02-23T00:12:09.593Z,-8.40
2023-02-23T00:13:11.434Z,-8.40
2023-02-23T00:14:13.297Z,-8.40
2023-02-23T00:15:15.674Z,-8.40
2023-02-23T00:16:20.072Z,-8.40
2023-02-23T00:17:24.443Z,-8.40
2023-02-23T00:18:30.242Z,-8.40
2023-02-23T00:19:33.585Z,-8.40
2023-02-23T00:20:35.493Z,-8.40
2023-02-23T00:21:37.447Z,-8.40
2023-02-23T00:22:40.272Z,-8.50
2023-02-23T00:23:45.238Z,-8.50
2023-02-23T00:24:48.067Z,-8.50
2023-02-23T00:25:49.940Z,-8.50
2023-02-23T00:26:51.950Z,-8.50
2023-02-23T00:27:54.923Z,-8.50
2023-02-23T00:28:57.564Z,-8.50
2023-02-23T00:29:59.425Z,-8.50
2023-02-23T00:31:04.257Z,-8.50
2023-02-23T00:32:06.443Z,-8.50
2023-02-23T00:33:09.376Z,-8.50
2023-02-23T00:34:13.039Z,-8.50
2023-02-23T00:35:18.969Z,-8.50
2023-02-23T00:36:23.237Z,-8.50
2023-02-23T00:37:25.291Z,-8.50
2023-02-23T00:38:27.925Z,-8.50
2023-02-23T00:39:29.807Z,-8.60
2023-02-23T00:40:31.637Z,-8.50
2023-02-23T00:41:33.467Z,-8.50
2023-02-23T00:42:35.889Z,-8.50
2023-02-23T00:43:39.647Z,-8.50
2023-02-23T00:44:42.321Z,-8.50
2023-02-23T00:45:44.208Z,-8.50
2023-02-23T00:46:49.094Z,-8.50
2023-02-23T00:47:50.957Z,-8.50
2023-02-23T00:48:55.446Z,-8.50
2023-02-23T00:49:58.165Z,-8.50
2023-02-23T00:51:05.447Z,-8.50
2023-02-23T00:52:07.760Z,-8.50
2023-02-23T00:53:11.516Z,-8.50
2023-02-23T00:54:15.132Z,-8.50
2023-02-23T00:55:17.074Z,-8.50
2023-02-23T00:56:18.893Z,-8.50
2023-02-23T00:57:20.717Z,-8.50
2023-02-23T00:58:23.855Z,-8.50
2023-02-23T00:59:25.889Z,-8.50
2023-02-23T01:00:27.698Z,-8.50
2023-02-23T01:01:29.961Z,-8.50
2023-02-23T01:02:31.820Z,-8.50
2023-02-23T01:03:34.295Z,-8.50
2023-02-23T01:04:36.128Z,-8.50
2023-02-23T01:05:38.017Z,-8.50
2023-02-23T01:06:41.609Z,-8.50
2023-02-23T01:07:46.532Z,-8.50
2023-02-23T01:08:50.451Z,-8.60
2023-02-23T01:09:52.957Z,-8.60
2023-02-23T01:10:54.840Z,-8.60
2023-02-23T01:11:57.611Z,-8.60
2023-02-23T01:12:59.518Z,-8.60
2023-02-23T01:14:02.051Z,-8.60
2023-02-23T01:15:04.096Z,-8.60
2023-02-23T01:16:17.992Z,-8.60
2023-02-23T01:17:19.988Z,-8.60
2023-02-23T01:18:21.873Z,-8.60
2023-02-23T01:19:23.803Z,-8.60
2023-02-23T01:20:27.362Z,-8.60
2023-02-23T01:21:44.577Z,-8.60
2023-02-23T01:22:49.871Z,-8.60
2023-02-23T01:23:53.358Z,-8.60
2023-02-23T01:24:55.279Z,-8.70
2023-02-23T01:25:57.183Z,-8.60
2023-02-23T01:26:59.022Z,-8.60
2023-02-23T01:28:01.667Z,-8.60
2023-02-23T01:29:15.355Z,-8.60
2023-02-23T01:30:17.343Z,-8.60
2023-02-23T01:31:20.728Z,-8.60
2023-02-23T01:32:22.917Z,-8.70
2023-02-23T01:33:24.945Z,-8.60
2023-02-23T01:34:27.050Z,-8.60
2023-02-23T01:35:30.038Z,-8.60
2023-02-23T01:36:36.730Z,-8.60
2023-02-23T01:37:40.837Z,-8.60
2023-02-23T01:38:42.987Z,-8.60
2023-02-23T01:39:44.825Z,-8.60
2023-02-23T01:40:47.428Z,-8.60
2023-02-23T01:41:51.945Z,-8.60
2023-02-23T01:42:53.806Z,-8.60
2023-02-23T01:44:29.189Z,-8.60
2023-02-23T01:45:34.959Z,-8.60
2023-02-23T01:46:45.543Z,-8.60
2023-02-23T01:47:48.261Z,-8.60
2023-02-23T01:48:51.618Z,-8.50
2023-02-23T01:49:53.586Z,-8.60
2023-02-23T01:51:12.765Z,-8.60
2023-02-23T01:52:17.800Z,-8.60
2023-02-23T01:53:21.657Z,-8.60
2023-02-23T01:54:29.118Z,-8.60
2023-02-23T01:55:31.747Z,-8.60
2023-02-23T01:56:37.416Z,-8.60
2023-02-23T01:57:40.667Z,-8.60
2023-02-23T01:58:46.751Z,-8.60
2023-02-23T01:59:50.115Z,-8.60
2023-02-23T02:00:57.030Z,-8.60
2023-02-23T02:01:59.122Z,-8.60
2023-02-23T02:03:08.683Z,-8.50
2023-02-23T02:04:16.729Z,-8.50
2023-02-23T02:05:19.883Z,-8.50
2023-02-23T02:06:25.056Z,-8.50
2023-02-23T02:07:30.465Z,-8.50
2023-02-23T02:08:34.093Z,-8.50
2023-02-23T02:09:38.798Z,-8.50
2023-02-23T02:10:40.821Z,-8.50
2023-02-23T02:11:44.763Z,-8.60
2023-02-23T02:12:52.619Z,-8.50
2023-02-23T02:13:57.434Z,-8.50
2023-02-23T02:15:00.633Z,-8.60
2023-02-23T02:16:24.668Z,-8.60
2023-02-23T02:17:39.635Z,-8.60
2023-02-23T02:18:57.697Z,-8.60
2023-02-23T02:20:32.725Z,-8.60
2023-02-23T02:21:40.788Z,-8.60
2023-02-23T02:23:27.440Z,-8.60
2023-02-23T02:24:48.246Z,-8.60
2023-02-23T02:26:21.122Z,-8.60
2023-02-23T02:28:04.209Z,-8.60
2023-02-23T02:29:33.772Z,-8.70
2023-02-23T02:30:52.767Z,-8.70
2023-02-23T02:33:23.129Z,-8.70
2023-02-23T02:35:19.071Z,-8.70
2023-02-23T02:36:42.302Z,-8.70
2023-02-23T02:38:18.705Z,-8.70
2023-02-23T02:39:39.220Z,-8.70
2023-02-23T02:41:08.697Z,-8.70
2023-02-23T02:42:29.477Z,-8.70
2023-02-23T02:43:37.642Z,-8.70
2023-02-23T02:44:49.671Z,-8.70
2023-02-23T02:45:51.435Z,-8.80
2023-02-23T02:47:03.583Z,-8.80
2023-02-23T02:48:26.237Z,-8.80
2023-02-23T02:49:39.050Z,-8.80
2023-02-23T02:50:47.790Z,-8.70
2023-02-23T02:51:55.633Z,-8.80
2023-02-23T02:53:36.152Z,-8.80
2023-02-23T02:55:05.633Z,-8.80
2023-02-23T02:56:08.194Z,-8.80
2023-02-23T02:57:13.017Z,-8.80
2023-02-23T02:58:17.859Z,-8.80
2023-02-23T02:59:39.176Z,-8.80
2023-02-23T03:01:03.567Z,-8.70
2023-02-23T03:02:25.395Z,-8.70
2023-02-23T03:04:04.056Z,-8.70
2023-02-23T03:05:40.583Z,-8.70
2023-02-23T03:07:17.431Z,-8.80
2023-02-23T03:08:47.886Z,-8.80
2023-02-23T03:10:08.527Z,-8.80
2023-02-23T03:11:34.325Z,-8.80
2023-02-23T03:13:16.124Z,-8.70
2023-02-23T03:14:36.625Z,-8.70
2023-02-23T03:16:28.682Z,-8.70
2023-02-23T03:18:01.573Z,-8.70
2023-02-23T03:19:27.922Z,-8.70
2023-02-23T03:21:06.225Z,-8.80
2023-02-23T03:22:44.936Z,-8.80
2023-02-23T03:24:21.244Z,-8.80
2023-02-23T03:25:52.879Z,-8.80
2023-02-23T03:27:39.533Z,-8.80
2023-02-23T03:29:14.064Z,-8.80
2023-02-23T03:30:42.046Z,-8.80
2023-02-23T03:32:09.129Z,-8.80
2023-02-23T03:33:38.260Z,-8.80
2023-02-23T03:35:10.388Z,-8.80
2023-02-23T03:36:40.643Z,-8.70
2023-02-23T03:38:08.383Z,-8.80
2023-02-23T03:39:56.354Z,-8.80
2023-02-23T03:41:19.730Z,-8.80
2023-02-23T03:42:45.733Z,-8.80
2023-02-23T03:44:13.718Z,-8.80
2023-02-23T03:45:39.099Z,-8.80
2023-02-23T03:47:01.089Z,-8.70
2023-02-23T03:48:24.390Z,-8.70
2023-02-23T03:49:49.861Z,-8.70
2023-02-23T03:51:17.197Z,-8.70
2023-02-23T03:52:43.599Z,-8.70
2023-02-23T03:54:09.900Z,-8.70
2023-02-23T03:55:36.807Z,-8.70
2023-02-23T03:57:02.225Z,-8.70
2023-02-23T03:58:28.288Z,-8.70
2023-02-23T03:59:55.331Z,-8.70
2023-02-23T04:01:20.389Z,-8.70
2023-02-23T04:02:43.307Z,-8.70
2023-02-23T04:04:05.679Z,-8.70
2023-02-23T04:05:32.059Z,-8.70
2023-02-23T04:06:59.153Z,-8.70
2023-02-23T04:08:23.025Z,-8.70
2023-02-23T04:09:43.977Z,-8.70
2023-02-23T04:11:12.467Z,-8.70
2023-02-23T04:13:05.556Z,-8.70
2023-02-23T04:14:15.645Z,-8.70
2023-02-23T04:15:25.143Z,-8.70
2023-02-23T04:16:29.911Z,-8.70
2023-02-23T04:17:32.080Z,-8.70
2023-02-23T04:18:37.297Z,-8.70
2023-02-23T04:19:39.146Z,-8.70
2023-02-23T04:20:41.242Z,-8.70
2023-02-23T04:21:43.126Z,-8.60
2023-02-23T04:22:44.916Z,-8.70
2023-02-23T04:23:46.934Z,-8.70
2023-02-23T04:24:50.097Z,-8.70
2023-02-23T04:25:53.249Z,-8.70
2023-02-23T04:26:55.242Z,-8.60
2023-02-23T04:27:57.148Z,-8.70
2023-02-23T04:28:58.964Z,-8.70
2023-02-23T04:30:01.466Z,-8.70
2023-02-23T04:31:03.500Z,-8.70
2023-02-23T04:32:06.036Z,-8.70
2023-02-23T04:33:08.438Z,-8.70
2023-02-23T04:34:10.484Z,-8.70
2023-02-23T04:35:13.328Z,-8.70
2023-02-23T04:36:15.431Z,-8.70
2023-02-23T04:37:17.281Z,-8.70
2023-02-23T04:38:19.117Z,-8.70
2023-02-23T04:39:20.937Z,-8.70
2023-02-23T04:40:24.293Z,-8.70
2023-02-23T04:41:26.550Z,-8.70
2023-02-23T04:42:28.834Z,-8.70
2023-02-23T04:43:30.748Z,-8.70
2023-02-23T04:44:32.531Z,-8.70
2023-02-23T04:45:34.401Z,-8.70
2023-02-23T04:46:36.285Z,-8.70
2023-02-23T04:47:38.397Z,-8.70
2023-02-23T04:48:40.323Z,-8.80
2023-02-23T04:49:43.068Z,-8.80
2023-02-23T04:50:44.902Z,-8.80
2023-02-23T04:51:47.711Z,-8.80
2023-02-23T04:52:49.684Z,-8.80
2023-02-23T04:53:51.557Z,-8.80
2023-02-23T04:54:53.392Z,-8.80
2023-02-23T04:55:55.291Z,-8.80
2023-02-23T04:56:57.199Z,-8.80
2023-02-23T04:58:01.246Z,-8.80
2023-02-23T04:59:03.104Z,-8.80
2023-02-23T05:00:05.825Z,-8.90
2023-02-23T05:01:09.891Z,-8.90
2023-02-23T05:02:12.210Z,-8.90
2023-02-23T05:03:14.107Z,-8.80
2023-02-23T05:04:15.949Z,-8.90
2023-02-23T05:05:18.319Z,-8.90
2023-02-23T05:06:21.039Z,-8.80
2023-02-23T05:07:23.160Z,-8.80
2023-02-23T05:08:25.003Z,-8.90
2023-02-23T05:09:26.991Z,-8.90
2023-02-23T05:10:29.067Z,-8.90
2023-02-23T05:11:31.089Z,-8.90
2023-02-23T05:12:33.132Z,-8.90
2023-02-23T05:13:46.725Z,-8.90
2023-02-23T05:14:48.637Z,-8.90
2023-02-23T05:15:50.575Z,-8.90
2023-02-23T05:16:52.740Z,-8.90
2023-02-23T05:17:55.966Z,-8.90
2023-02-23T05:18:58.370Z,-8.90
2023-02-23T05:20:00.168Z,-8.90
2023-02-23T05:21:07.164Z,-8.90
2023-02-23T05:22:12.578Z,-8.90
2023-02-23T05:23:14.419Z,-8.90
2023-02-23T05:24:17.436Z,-8.90
2023-02-23T05:25:19.498Z,-8.80
2023-02-23T05:26:21.411Z,-8.90
2023-02-23T05:27:23.273Z,-8.90
2023-02-23T05:28:25.351Z,-8.90
2023-02-23T05:29:27.183Z,-8.90
2023-02-23T05:30:29.276Z,-8.90
2023-02-23T05:31:31.582Z,-8.90
2023-02-23T05:32:34.947Z,-8.90
2023-02-23T05:33:45.818Z,-8.90
2023-02-23T05:34:47.795Z,-8.90
2023-02-23T05:35:49.692Z,-8.90
2023-02-23T05:36:52.008Z,-8.90
2023-02-23T05:37:53.887Z,-8.80
2023-02-23T05:38:56.135Z,-8.90
2023-02-23T05:39:58.149Z,-8.80
2023-02-23T05:41:00.105Z,-8.80
2023-02-23T05:42:01.955Z,-8.80
2023-02-23T05:43:04.131Z,-8.80
2023-02-23T05:44:07.068Z,-8.80
2023-02-23T05:45:09.008Z,-8.80
2023-02-23T05:46:14.715Z,-8.70
2023-02-23T05:47:16.967Z,-8.70
2023-02-23T05:48:18.754Z,-8.70
2023-02-23T05:49:20.619Z,-8.70
2023-02-23T05:50:22.692Z,-8.70
2023-02-23T05:51:25.181Z,-8.70
2023-02-23T05:52:31.870Z,-8.60
2023-02-23T05:53:33.817Z,-8.60
2023-02-23T05:54:35.656Z,-8.60
2023-02-23T05:55:37.764Z,-8.60
2023-02-23T05:56:39.944Z,-8.50
2023-02-23T05:57:41.898Z,-8.50
2023-02-23T05:58:43.778Z,-8.50
2023-02-23T05:59:45.641Z,-8.40
2023-02-23T06:00:47.447Z,-8.40
2023-02-23T06:01:49.428Z,-8.40
2023-02-23T06:02:53.084Z,-8.40
2023-02-23T06:03:56.219Z,-8.30
2023-02-23T06:05:00.406Z,-8.30
2023-02-23T06:06:02.291Z,-8.20
2023-02-23T06:07:04.235Z,-8.10
2023-02-23T06:08:06.381Z,-8.20
2023-02-23T06:09:08.283Z,-8.10
2023-02-23T06:10:10.831Z,-8.10
2023-02-23T06:11:13.210Z,-8.10
2023-02-23T06:12:18.228Z,-8.10
2023-02-23T06:13:21.382Z,-8.00
2023-02-23T06:14:23.309Z,-8.00
2023-02-23T06:15:25.229Z,-8.00
2023-02-23T06:16:28.278Z,-7.90
2023-02-23T06:17:30.882Z,-7.90
2023-02-23T06:18:32.734Z,-7.90
2023-02-23T06:19:34.699Z,-7.90
2023-02-23T06:20:40.155Z,-7.90
2023-02-23T06:21:42.459Z,-7.90
2023-02-23T06:22:44.261Z,-7.90
2023-02-23T06:23:46.071Z,-7.90
2023-02-23T06:24:48.113Z,-7.80
2023-02-23T06:25:49.967Z,-7.80
2023-02-23T06:26:51.871Z,-7.80
2023-02-23T06:27:54.813Z,-7.70
2023-02-23T06:28:57.203Z,-7.70
2023-02-23T06:29:59.178Z,-7.60
2023-02-23T06:31:01.097Z,-7.60
2023-02-23T06:32:03.815Z,-7.60
2023-02-23T06:33:06.752Z,-7.50
2023-02-23T06:34:08.824Z,-7.50
2023-02-23T06:35:11.110Z,-7.40
2023-02-23T06:36:12.985Z,-7.40
2023-02-23T06:37:14.839Z,-7.40
2023-02-23T06:38:17.201Z,-7.40
2023-02-23T06:39:19.238Z,-7.30
2023-02-23T06:40:21.410Z,-7.30
2023-02-23T06:41:23.692Z,-7.30
2023-02-23T06:42:25.805Z,-7.30
2023-02-23T06:43:28.552Z,-7.20
2023-02-23T06:44:30.392Z,-7.20
2023-02-23T06:45:33.091Z,-7.20
2023-02-23T06:46:36.302Z,-7.20
2023-02-23T06:47:38.290Z,-7.20
2023-02-23T06:48:41.804Z,-7.20
2023-02-23T06:49:43.641Z,-7.10
2023-02-23T06:50:45.667Z,-7.10
2023-02-23T06:51:47.646Z,-7.10
2023-02-23T06:52:49.563Z,-7.10
2023-02-23T06:53:55.318Z,-7.00
2023-02-23T06:54:57.310Z,-7.00
2023-02-23T06:55:59.804Z,-7.00
2023-02-23T06:57:01.912Z,-7.00
2023-02-23T06:58:05.047Z,-7.00
2023-02-23T06:59:07.307Z,-7.00
2023-02-23T07:00:10.330Z,-6.90
2023-02-23T07:01:14.817Z,-6.90
2023-02-23T07:02:17.143Z,-6.90
2023-02-23T07:03:19.340Z,-6.90
2023-02-23T07:04:21.191Z,-6.90
2023-02-23T07:05:23.408Z,-6.90
2023-02-23T07:06:25.464Z,-6.90
2023-02-23T07:07:27.254Z,-6.90
2023-02-23T07:08:29.153Z,-6.90
2023-02-23T07:09:31.428Z,-6.90
2023-02-23T07:10:36.200Z,-6.90
2023-02-23T07:11:39.705Z,-6.80
2023-02-23T07:12:41.778Z,-6.90
2023-02-23T07:13:43.634Z,-6.80
2023-02-23T07:14:45.460Z,-6.80
2023-02-23T07:15:47.318Z,-6.80
2023-02-23T07:16:49.197Z,-6.80
2023-02-23T07:17:52.800Z,-6.80
2023-02-23T07:18:55.834Z,-6.80
2023-02-23T07:19:58.403Z,-6.80
2023-02-23T07:21:00.544Z,-6.70
2023-02-23T07:22:03.972Z,-6.70
2023-02-23T07:23:05.848Z,-6.70
2023-02-23T07:24:08.956Z,-6.70
2023-02-23T07:25:11.118Z,-6.70
2023-02-23T07:26:15.915Z,-6.70
2023-02-23T07:27:18.036Z,-6.70
2023-02-23T07:28:21.141Z,-6.70
2023-02-23T07:29:24.118Z,-6.60
2023-02-23T07:30:26.284Z,-6.60
2023-02-23T07:31:28.794Z,-6.60
2023-02-23T07:32:31.039Z,-6.50
2023-02-23T07:33:33.055Z,-6.60
2023-02-23T07:34:34.895Z,-6.50
2023-02-23T07:35:36.729Z,-6.50
2023-02-23T07:36:38.615Z,-6.50
2023-02-23T07:37:40.505Z,-6.50
2023-02-23T07:38:42.321Z,-6.40
2023-02-23T07:39:44.331Z,-6.40
2023-02-23T07:40:46.158Z,-6.40
2023-02-23T07:41:47.998Z,-6.30
2023-02-23T07:42:49.935Z,-6.30
2023-02-23T07:43:51.843Z,-6.20
2023-02-23T07:44:53.981Z,-6.20
2023-02-23T07:45:59.983Z,-6.20
2023-02-23T07:47:01.944Z,-6.20
2023-02-23T07:48:04.010Z,-6.20
2023-02-23T07:49:05.837Z,-6.20
2023-02-23T07:50:09.957Z,-6.10
2023-02-23T07:51:14.019Z,-6.10
2023-02-23T07:52:18.867Z,-6.10
2023-02-23T07:53:20.784Z,-6.10
2023-02-23T07:54:22.770Z,-6.00
2023-02-23T07:55:24.599Z,-6.00
2023-02-23T07:56:27.503Z,-6.00
2023-02-23T07:57:29.369Z,-6.00
2023-02-23T07:58:31.736Z,-6.00
2023-02-23T07:59:33.696Z,-6.00
2023-02-23T08:00:37.445Z,-6.00
2023-02-23T08:01:39.400Z,-6.00
2023-02-23T08:02:41.428Z,-6.00
2023-02-23T08:03:49.569Z,-6.00
2023-02-23T08:04:54.209Z,-6.00
2023-02-23T08:05:56.134Z,-5.90
2023-02-23T08:06:58.646Z,-5.90
2023-02-23T08:08:00.571Z,-5.90
2023-02-23T08:09:04.423Z,-5.90
2023-02-23T08:10:06.899Z,-5.80
2023-02-23T08:11:08.803Z,-5.80
2023-02-23T08:12:10.800Z,-5.70
2023-02-23T08:13:12.676Z,-5.70
2023-02-23T08:14:14.649Z,-5.60
2023-02-23T08:15:16.696Z,-5.60
2023-02-23T08:16:19.472Z,-5.50
2023-02-23T08:17:21.458Z,-5.50
2023-02-23T08:18:23.726Z,-5.50
2023-02-23T08:19:25.658Z,-5.60
2023-02-23T08:20:27.819Z,-5.60
2023-02-23T08:21:30.454Z,-5.50
2023-02-23T08:22:47.137Z,-5.50
2023-02-23T08:23:51.275Z,-5.40
2023-02-23T08:24:53.230Z,-5.40
2023-02-23T08:25:55.342Z,-5.40
2023-02-23T08:27:01.128Z,-5.40
2023-02-23T08:28:04.758Z,-5.40
2023-02-23T08:29:07.175Z,-5.40
2023-02-23T08:30:10.169Z,-5.30
2023-02-23T08:31:18.861Z,-5.40
2023-02-23T08:32:21.357Z,-5.40
2023-02-23T08:33:23.557Z,-5.40
2023-02-23T08:34:25.815Z,-5.30
2023-02-23T08:35:31.123Z,-5.30
2023-02-23T08:36:33.421Z,-5.30
2023-02-23T08:37:35.337Z,-5.20
2023-02-23T08:38:37.370Z,-5.20
2023-02-23T08:39:39.554Z,-5.10
2023-02-23T08:40:41.573Z,-5.00
2023-02-23T08:41:43.455Z,-5.00
2023-02-23T08:42:45.531Z,-5.00
2023-02-23T08:43:48.847Z,-4.90
2023-02-23T08:44:51.027Z,-4.90
2023-02-23T08:45:53.025Z,-4.80
2023-02-23T08:46:55.803Z,-4.90
2023-02-23T08:47:57.990Z,-4.90
2023-02-23T08:49:00.781Z,-4.80
2023-02-23T08:50:03.161Z,-4.80
2023-02-23T08:51:07.325Z,-4.80
2023-02-23T08:52:09.396Z,-4.80
2023-02-23T08:53:11.372Z,-4.70
2023-02-23T08:54:15.289Z,-4.70
2023-02-23T08:55:18.636Z,-4.70
2023-02-23T08:56:20.634Z,-4.70
2023-02-23T08:57:22.616Z,-4.60
2023-02-23T08:58:24.712Z,-4.60
2023-02-23T08:59:27.292Z,-4.50
2023-02-23T09:00:29.292Z,-4.60
2023-02-23T09:01:31.540Z,-4.50
2023-02-23T09:02:33.528Z,-4.50
2023-02-23T09:03:38.300Z,-4.50
2023-02-23T09:04:44.133Z,-4.50
2023-02-23T09:05:46.418Z,-4.40
2023-02-23T09:06:50.371Z,-4.40
2023-02-23T09:07:52.918Z,-4.40
2023-02-23T09:08:58.720Z,-4.40
2023-02-23T09:10:01.132Z,-4.30
2023-02-23T09:11:03.297Z,-4.30
2023-02-23T09:12:05.570Z,-4.30
2023-02-23T09:13:07.954Z,-4.30
2023-02-23T09:14:10.084Z,-4.30
2023-02-23T09:15:15.170Z,-4.30
2023-02-23T09:16:18.061Z,-4.30
2023-02-23T09:17:21.042Z,-4.30
2023-02-23T09:18:24.207Z,-4.30
2023-02-23T09:19:27.698Z,-4.30
2023-02-23T09:20:29.705Z,-4.20
2023-02-23T09:21:34.403Z,-4.30
2023-02-23T09:22:36.995Z,-4.30
2023-02-23T09:23:39.054Z,-4.30
2023-02-23T09:24:41.075Z,-4.20
2023-02-23T09:25:44.187Z,-4.20
2023-02-23T09:26:46.090Z,-4.20
2023-02-23T09:27:54.197Z,-4.20
2023-02-23T09:28:58.934Z,-4.10
2023-02-23T09:30:00.789Z,-4.10
2023-02-23T09:31:08.724Z,-4.10
2023-02-23T09:32:12.307Z,-4.10
2023-02-23T09:33:15.268Z,-4.00
2023-02-23T09:34:17.103Z,-4.00
2023-02-23T09:35:21.686Z,-3.90
2023-02-23T09:36:26.294Z,-3.90
2023-02-23T09:37:28.324Z,-3.90
2023-02-23T09:38:31.281Z,-3.90
2023-02-23T09:39:38.373Z,-3.90
2023-02-23T09:40:48.763Z,-3.80
2023-02-23T09:41:59.760Z,-3.80
2023-02-23T09:43:31.960Z,-3.70
2023-02-23T09:44:45.558Z,-3.70
2023-02-23T09:46:02.840Z,-3.70
2023-02-23T09:47:11.646Z,-3.70
2023-02-23T09:48:23.462Z,-3.60
2023-02-23T09:49:29.878Z,-3.60
2023-02-23T09:50:34.964Z,-3.60
2023-02-23T09:51:41.613Z,-3.60
2023-02-23T09:52:48.858Z,-3.50
2023-02-23T09:54:00.145Z,-3.50
2023-02-23T09:55:02.523Z,-3.50
2023-02-23T09:56:39.510Z,-3.40
2023-02-23T09:57:46.210Z,-3.40
2023-02-23T09:58:48.227Z,-3.30
2023-02-23T09:59:50.310Z,-3.30
2023-02-23T10:01:07.562Z,-3.20
2023-02-23T10:02:19.399Z,-3.30
2023-02-23T10:03:34.030Z,-3.20
2023-02-23T10:05:11.913Z,-3.10
2023-02-23T10:06:18.016Z,-3.00
2023-02-23T10:08:03.293Z,-3.00
2023-02-23T10:09:22.795Z,-2.90
2023-02-23T10:10:28.186Z,-2.90
2023-02-23T10:11:42.584Z,-2.90
2023-02-23T10:12:56.339Z,-2.90
2023-02-23T10:14:33.405Z,-2.80
2023-02-23T10:15:35.334Z,-2.80
2023-02-23T10:16:48.963Z,-2.80
2023-02-23T10:18:12.474Z,-2.70
2023-02-23T10:19:20.583Z,-2.70
2023-02-23T10:20:39.403Z,-2.60
2023-02-23T10:21:46.421Z,-2.60
2023-02-23T10:22:50.262Z,-2.60
2023-02-23T10:24:01.981Z,-2.50
2023-02-23T10:25:10.408Z,-2.50
2023-02-23T10:26:17.579Z,-2.60
2023-02-23T10:27:28.047Z,-2.50
2023-02-23T10:28:34.853Z,-2.50
2023-02-23T10:29:43.092Z,-2.50
2023-02-23T10:30:46.019Z,-2.50
2023-02-23T10:31:52.362Z,-2.50
2023-02-23T10:33:21.259Z,-2.50
2023-02-23T10:34:25.502Z,-2.40
2023-02-23T10:35:30.062Z,-2.40
2023-02-23T10:36:43.971Z,-2.40
2023-02-23T10:37:50.414Z,-2.40
2023-02-23T10:38:52.386Z,-2.40
2023-02-23T10:39:54.404Z,-2.40
2023-02-23T10:40:56.843Z,-2.40
2023-02-23T10:42:03.003Z,-2.30
2023-02-23T10:43:04.913Z,-2.30
2023-02-23T10:44:16.909Z,-2.30
2023-02-23T10:45:25.795Z,-2.30
2023-02-23T10:46:36.988Z,-2.30
2023-02-23T10:47:40.413Z,-2.30
2023-02-23T10:48:43.543Z,-2.30
2023-02-23T10:49:48.935Z,-2.30
2023-02-23T10:50:54.000Z,-2.20
2023-02-23T10:51:58.315Z,-2.20
2023-02-23T10:53:11.853Z,-2.20
2023-02-23T10:54:44.926Z,-2.10
2023-02-23T10:55:59.702Z,-2.10
2023-02-23T10:57:03.197Z,-2.10
2023-02-23T10:58:17.000Z,-2.10
2023-02-23T10:59:20.747Z,-2.10
2023-02-23T11:00:30.748Z,-2.10
2023-02-23T11:02:00.933Z,-2.10
2023-02-23T11:03:25.412Z,-2.00
2023-02-23T11:04:34.938Z,-2.00
2023-02-23T11:05:51.336Z,-2.10
2023-02-23T11:07:21.930Z,-2.10
2023-02-23T11:08:37.838Z,-2.00
2023-02-23T11:09:47.216Z,-2.10
2023-02-23T11:10:57.009Z,-2.00
2023-02-23T11:12:23.032Z,-2.00
2023-02-23T11:13:29.210Z,-2.00
2023-02-23T11:14:32.256Z,-2.00
2023-02-23T11:15:49.768Z,-2.00
2023-02-23T11:16:52.555Z,-2.00
2023-02-23T11:17:59.837Z,-2.00
2023-02-23T11:19:03.958Z,-1.90
2023-02-23T11:20:18.360Z,-2.00
2023-02-23T11:21:49.383Z,-2.00
2023-02-23T11:22:52.390Z,-2.00
2023-02-23T11:23:58.048Z,-2.00
2023-02-23T11:25:02.017Z,-1.90
2023-02-23T11:26:23.046Z,-1.90
2023-02-23T11:27:27.569Z,-1.90
2023-02-23T11:28:35.969Z,-1.90
2023-02-23T11:29:44.427Z,-1.90
2023-02-23T11:30:46.984Z,-1.90
2023-02-23T11:31:52.749Z,-2.00
2023-02-23T11:32:58.829Z,-2.00
2023-02-23T11:34:03.632Z,-2.00
2023-02-23T11:35:20.836Z,-1.90
2023-02-23T11:36:22.867Z,-1.90
2023-02-23T11:37:24.852Z,-1.90
2023-02-23T11:38:29.716Z,-1.90
2023-02-23T11:39:31.886Z,-1.90
2023-02-23T11:40:35.027Z,-1.90
2023-02-23T11:41:39.576Z,-1.90
2023-02-23T11:43:07.359Z,-1.90
2023-02-23T11:44:21.346Z,-1.90
2023-02-23T11:45:39.403Z,-1.90
2023-02-23T11:46:45.844Z,-1.90
2023-02-23T11:47:56.665Z,-1.80
2023-02-23T11:49:07.802Z,-1.80
2023-02-23T11:50:20.086Z,-1.80
2023-02-23T11:51:37.252Z,-1.80
2023-02-23T11:52:44.679Z,-1.90
2023-02-23T11:53:47.158Z,-1.80
2023-02-23T11:54:59.409Z,-1.80
2023-02-23T11:56:08.285Z,-1.80
2023-02-23T11:57:10.482Z,-1.70
2023-02-23T11:58:30.971Z,-1.80
2023-02-23T11:59:37.907Z,-1.70
2023-02-23T12:00:40.290Z,-1.70
2023-02-23T12:01:52.874Z,-1.80
2023-02-23T12:03:00.851Z,-1.70
2023-02-23T12:04:03.620Z,-1.70
2023-02-23T12:05:24.264Z,-1.70
2023-02-23T12:06:30.132Z,-1.70
2023-02-23T12:07:43.821Z,-1.70
2023-02-23T12:08:56.976Z,-1.70
2023-02-23T12:10:12.831Z,-1.70
2023-02-23T12:11:24.492Z,-1.60
2023-02-23T12:12:29.915Z,-1.60
2023-02-23T12:13:34.271Z,-1.60
2023-02-23T12:14:51.350Z,-1.60
2023-02-23T12:15:56.070Z,-1.60
2023-02-23T12:17:05.225Z,-1.60
2023-02-23T12:18:27.601Z,-1.60
2023-02-23T12:19:46.819Z,-1.60
2023-02-23T12:20:50.804Z,-1.60
2023-02-23T12:22:00.920Z,-1.50
2023-02-23T12:23:06.047Z,-1.60
2023-02-23T12:24:16.012Z,-1.60
2023-02-23T12:25:23.762Z,-1.60
2023-02-23T12:26:27.677Z,-1.50
2023-02-23T12:27:34.118Z,-1.50
2023-02-23T12:29:04.796Z,-1.50
2023-02-23T12:30:24.207Z,-1.50
2023-02-23T12:31:35.103Z,-1.40
2023-02-23T12:32:37.366Z,-1.50
2023-02-23T12:33:39.176Z,-1.40
2023-02-23T12:34:56.016Z,-1.40
2023-02-23T12:36:03.929Z,-1.40
2023-02-23T12:37:30.333Z,-1.30
2023-02-23T12:38:33.436Z,-1.40
2023-02-23T12:39:36.974Z,-1.40
2023-02-23T12:40:42.277Z,-1.40
2023-02-23T12:42:02.040Z,-1.40
2023-02-23T12:43:22.724Z,-1.30
2023-02-23T12:44:34.397Z,-1.30
2023-02-23T12:45:55.066Z,-1.30
2023-02-23T12:46:59.677Z,-1.30
2023-02-23T12:48:07.575Z,-1.20
2023-02-23T12:49:17.607Z,-1.20
2023-02-23T12:50:19.675Z,-1.20
2023-02-23T12:51:25.755Z,-1.20
2023-02-23T12:52:30.053Z,-1.20
2023-02-23T12:53:39.992Z,-1.20
2023-02-23T12:54:42.020Z,-1.20
2023-02-23T12:55:59.066Z,-1.20
2023-02-23T12:57:08.795Z,-1.20
2023-02-23T12:58:36.855Z,-1.20
2023-02-23T12:59:41.457Z,-1.20
2023-02-23T13:00:50.392Z,-1.20
2023-02-23T13:02:03.222Z,-1.20
2023-02-23T13:03:10.034Z,-1.20
2023-02-23T13:04:14.489Z,-1.20
2023-02-23T13:05:31.310Z,-1.10
2023-02-23T13:06:35.423Z,-1.10
2023-02-23T13:07:46.301Z,-1.10
2023-02-23T13:08:48.071Z,-1.10
2023-02-23T13:10:04.337Z,-1.10
2023-02-23T13:11:11.855Z,-1.10
2023-02-23T13:12:19.396Z,-1.10
2023-02-23T13:13:37.081Z,-1.10
2023-02-23T13:14:43.227Z,-1.10
2023-02-23T13:15:53.522Z,-1.00
2023-02-23T13:16:59.115Z,-1.00
2023-02-23T13:18:13.500Z,-1.00
2023-02-23T13:19:23.176Z,-0.90
2023-02-23T13:20:25.759Z,-0.90
2023-02-23T13:21:36.857Z,-0.90
2023-02-23T13:22:47.976Z,-0.90
2023-02-23T13:23:55.517Z,-0.90
2023-02-23T13:25:20.759Z,-0.90
2023-02-23T13:26:39.146Z,-0.90
2023-02-23T13:27:44.031Z,-0.90
2023-02-23T13:28:56.698Z,-0.90
2023-02-23T13:29:59.420Z,-0.90
2023-02-23T13:31:02.987Z,-0.90
2023-02-23T13:32:25.574Z,-0.90
2023-02-23T13:33:38.434Z,-0.80
2023-02-23T13:34:50.027Z,-0.80
2023-02-23T13:35:51.948Z,-0.80
2023-02-23T13:36:54.625Z,-0.80
2023-02-23T13:38:14.438Z,-0.80
2023-02-23T13:39:36.457Z,-0.80
2023-02-23T13:40:54.789Z,-0.90
2023-02-23T13:42:32.272Z,-0.90
2023-02-23T13:43:36.957Z,-0.90
2023-02-23T13:44:38.892Z,-1.00
2023-02-23T13:45:52.399Z,-1.00
2023-02-23T13:47:02.520Z,-1.00
2023-02-23T13:48:16.502Z,-1.00
2023-02-23T13:49:31.202Z,-1.00
2023-02-23T13:50:36.141Z,-1.00
2023-02-23T13:51:57.569Z,-1.10
2023-02-23T13:53:01.946Z,-1.10
2023-02-23T13:54:06.238Z,-1.10
2023-02-23T13:55:46.964Z,-1.10
2023-02-23T13:56:58.467Z,-1.10
2023-02-23T13:58:05.233Z,-1.10
2023-02-23T13:59:15.620Z,-1.10
2023-02-23T14:00:21.527Z,-1.10
2023-02-23T14:01:27.107Z,-1.10
2023-02-23T14:02:41.146Z,-1.10
2023-02-23T14:03:54.403Z,-1.10
2023-02-23T14:05:08.530Z,-1.10
2023-02-23T14:06:13.050Z,-1.10
2023-02-23T14:07:22.263Z,-1.10
2023-02-23T14:08:38.189Z,-1.10
2023-02-23T14:09:56.641Z,-1.10
2023-02-23T14:10:58.418Z,-1.10
2023-02-23T14:12:20.700Z,-1.10
2023-02-23T14:13:25.014Z,-1.10
2023-02-23T14:14:33.166Z,-1.10
2023-02-23T14:15:35.372Z,-1.10
2023-02-23T14:16:37.280Z,-1.10
2023-02-23T14:17:40.027Z,-1.10
2023-02-23T14:18:50.731Z,-1.10
2023-02-23T14:20:13.342Z,-1.10
2023-02-23T14:21:27.359Z,-1.10
2023-02-23T14:22:29.117Z,-1.20
2023-02-23T14:23:33.640Z,-1.20
2023-02-23T14:24:35.442Z,-1.20
2023-02-23T14:25:37.881Z,-1.10
2023-02-23T14:26:41.863Z,-1.10
2023-02-23T14:27:44.460Z,-1.20
2023-02-23T14:29:09.642Z,-1.20
2023-02-23T14:30:11.348Z,-1.20
2023-02-23T14:31:13.185Z,-1.20
2023-02-23T14:32:15.012Z,-1.20
2023-02-23T14:33:49.869Z,-1.20
2023-02-23T14:34:53.210Z,-1.20
2023-02-23T14:35:56.158Z,-1.20
2023-02-23T14:37:09.127Z,-1.20
2023-02-23T14:38:12.084Z,-1.20